Latest Weather Observations for kunanyi / Mount Wellington

IDT60901

Issued at 2:31 pm EDT Sunday 26 February 2017 (issued every 10 minutes, with the page automatically refreshed every 10 minutes)

About weather observations | Map of Hobart area stations | Latest observations for Hobart area | Other Formats
Station Details ID: 094087 Name: KUNANYI (MOUNT WELLINGTON PINNACLE) Lat: -42.90 Lon: 147.24 Height: 1260.47 m
Data from the previous 72 hours. | See also: Recent months at kunanyi / Mount Wellington
Date/Time
EDT
Temp
°C
App
Temp
°C
Dew
Point
°C
Rel
Hum
%
Delta-T
°C
Wind Press
QNH
hPa
Press
MSL
hPa
Rain since
9am
mm
Dir  Spd
km/h
Gust
km/h
Spd
kts
Gust
kts
26/02:30pm 13.8 9.7 4.1 52 4.8 N 15 24 8 13 - - 0.0
26/02:00pm 13.5 9.2 5.2 57 4.2 NNW 17 24 9 13 - - 0.0
26/01:30pm 13.4 8.7 2.9 49 5.0 NNW 17 24 9 13 - - 0.0
26/01:00pm 12.0 7.9 4.5 60 3.7 N 15 26 8 14 - - 0.0
26/12:30pm 12.0 9.0 6.1 67 3.0 N 11 20 6 11 - - 0.0
26/12:00pm 11.5 8.8 5.8 68 2.9 NNE 9 15 5 8 - - 0.0
26/11:30am 10.6 8.2 5.2 69 2.7 N 7 13 4 7 - - 0.0
26/11:00am 10.4 8.3 5.8 73 2.3 N 6 9 3 5 - - 0.0
26/10:30am 10.9 8.0 1.4 52 4.3 WSW 6 9 3 5 - - 0.0
26/10:00am 9.5 5.6 1.4 57 3.6 WSW 11 15 6 8 - - 0.0
26/09:30am 8.8 5.0 1.7 61 3.2 WSW 11 17 6 9 - - 0.0
26/09:00am 8.4 4.2 -0.6 53 3.8 SW 11 17 6 9 - - 0.0
26/08:30am 7.7 3.9 -0.5 56 3.4 W 9 13 5 7 - - 0.0
26/08:00am 6.5 0.9 -0.2 62 2.8 WSW 19 22 10 12 - - 0.0
26/07:30am 6.9 1.3 -0.1 61 2.9 WSW 19 24 10 13 - - 0.0
26/07:00am 6.1 0.4 2.7 79 1.5 WSW 22 26 12 14 - - 0.0
26/06:30am 6.0 -0.2 2.3 77 1.6 WSW 24 32 13 17 - - 0.0
26/06:00am 5.8 -0.8 2.3 78 1.5 WSW 26 35 14 19 - - 0.0
26/05:30am 5.8 -2.2 3.6 86 1.0 WSW 35 44 19 24 - - 0.0
26/05:00am 6.2 -1.4 3.0 80 1.4 WSW 32 39 17 21 - - 0.0
26/04:30am 6.0 -2.1 3.2 82 1.3 WSW 35 43 19 23 - - 0.0
26/04:00am 5.6 -3.3 2.9 83 1.2 WSW 39 46 21 25 - - 0.0
26/03:30am 5.4 -3.0 1.5 76 1.7 W 35 46 19 25 - - 0.0
26/03:00am 4.5 -2.9 2.0 84 1.1 WNW 30 37 16 20 - - 0.0
26/02:30am 4.9 -2.3 2.9 87 0.9 WNW 30 43 16 23 - - 0.0
26/02:00am 3.6 -3.2 3.3 98 0.1 NW 28 32 15 17 - - 0.0
26/01:30am 4.0 -1.9 3.7 98 0.1 NNW 24 28 13 15 - - 0.0
26/01:00am 3.6 -2.4 3.3 98 0.1 NNW 24 28 13 15 - - 0.0
26/12:30am 3.3 -1.8 3.0 98 0.1 NNW 19 24 10 13 - - 0.0
26/12:00am 3.6 -1.5 3.3 98 0.1 NNE 19 22 10 12 - - 0.0
 
Date/Time
EDT
Temp
°C
App
Temp
°C
Dew
Point
°C
Rel
Hum
%
Delta-T
°C
Wind Press
QNH
hPa
Press
MSL
hPa
Rain since
9am
mm
Dir  Spd
km/h
Gust
km/h
Spd
kts
Gust
kts
25/11:30pm 3.8 -0.5 3.4 97 0.2 N 15 19 8 10 - - 0.0
25/11:00pm 3.9 -0.7 3.5 97 0.2 NNE 17 19 9 10 - - 0.0
25/10:30pm 4.0 0.5 3.6 97 0.2 NE 11 15 6 8 - - 0.0
25/10:00pm 4.0 1.2 3.4 96 0.3 ENE 7 11 4 6 - - 0.0
25/09:30pm 4.2 1.4 3.3 94 0.4 ENE 7 13 4 7 - - 0.0
25/09:00pm 4.0 1.4 3.1 94 0.4 E 6 9 3 5 - - 0.0
25/08:30pm 4.4 1.5 2.8 89 0.7 ENE 7 11 4 6 - - 0.0
25/08:00pm 4.7 2.3 2.4 85 1.0 ENE 4 7 2 4 - - 0.0
25/07:30pm 5.8 3.0 1.9 76 1.7 NNE 6 7 3 4 - - 0.0
25/07:00pm 7.0 4.0 1.9 70 2.3 N 7 9 4 5 - - 0.0
25/06:30pm 7.5 4.8 2.4 70 2.3 N 6 9 3 5 - - 0.0
25/06:00pm 7.8 4.6 3.1 72 2.2 N 9 13 5 7 - - 0.0
25/05:30pm 8.8 5.7 3.4 69 2.5 N 9 13 5 7 - - 0.0
25/05:00pm 8.3 5.2 3.4 71 2.3 NNE 9 13 5 7 - - 0.0
25/04:30pm 6.5 4.0 3.5 81 1.4 ESE 6 9 3 5 - - 0.0
25/04:00pm 5.8 2.3 3.5 85 1.0 SSE 11 15 6 8 - - 0.0
25/03:30pm 6.4 3.8 3.0 79 1.5 SE 6 13 3 7 - - 0.0
25/03:00pm 6.1 3.2 2.7 79 1.5 SE 7 13 4 7 - - 0.0
25/02:30pm 6.9 4.0 2.4 73 2.0 ESE 7 17 4 9 - - 0.0
25/02:00pm 7.4 5.0 1.9 68 2.4 SSE 4 7 2 4 - - 0.0
25/01:30pm 7.7 4.9 2.0 67 2.5 ESE 6 13 3 7 - - 0.0
25/01:00pm 6.9 4.0 1.6 69 2.3 ESE 6 11 3 6 - - 0.0
25/12:30pm 7.8 5.4 1.9 66 2.6 N 4 13 2 7 - - 0.0
25/12:00pm 5.7 3.1 1.1 72 2.0 ENE 4 13 2 7 - - 0.0
25/11:30am 6.9 4.1 2.0 71 2.2 NNE 6 15 3 8 - - 0.0
25/11:00am 5.8 2.4 1.9 76 1.7 NNE 9 17 5 9 - - 0.0
25/10:30am 4.8 1.9 1.3 78 1.5 NNE 6 13 3 7 - - 0.0
25/10:00am 5.5 3.1 2.2 79 1.4 N 4 7 2 4 - - 0.0
25/09:30am 3.7 -0.8 -0.1 76 1.5 SSW 13 19 7 10 - - 0.0
25/09:00am 2.5 -3.6 0.7 88 0.7 SW 22 26 12 14 - - 0.2
25/08:30am 2.0 -3.7 0.7 91 0.5 WSW 20 26 11 14 - - 0.2
25/08:00am 1.3 -6.0 0.1 92 0.5 WSW 28 35 15 19 - - 0.2
25/07:30am 0.8 -7.0 -0.5 91 0.5 WSW 30 33 16 18 - - 0.2
25/07:00am 0.6 -7.3 -1.3 87 0.8 WSW 30 37 16 20 - - 0.2
25/06:30am 0.7 -7.1 -1.1 88 0.7 WSW 30 35 16 19 - - 0.2
25/06:00am 0.5 -5.9 -2.0 83 1.0 SW 22 28 12 15 - - 0.2
25/05:30am 0.9 -4.9 -1.8 82 1.1 SW 19 24 10 13 - - 0.2
25/05:00am 0.6 -6.5 -1.6 85 0.9 SW 26 30 14 16 - - 0.2
25/04:30am 0.8 -6.3 -1.6 84 1.0 SW 26 32 14 17 - - 0.2
25/04:00am 0.4 -6.7 -1.0 90 0.6 SW 26 32 14 17 - - 0.2
25/03:30am 0.7 -6.8 -1.2 87 0.8 WSW 28 35 15 19 - - 0.2
25/03:00am 0.6 -6.4 -0.5 92 0.4 SW 26 32 14 17 - - 0.2
25/02:30am 0.6 -6.3 0.2 97 0.2 SW 26 33 14 18 - - 0.2
25/02:00am 0.8 -7.2 0.4 97 0.2 SW 32 37 17 20 - - 0.2
25/01:30am 1.5 -5.6 1.1 97 0.2 SW 28 37 15 20 - - 0.2
25/01:00am 1.3 -6.3 0.7 96 0.2 SW 30 35 16 19 - - 0.0
25/12:30am 1.5 -4.5 0.9 96 0.2 WSW 22 28 12 15 - - 0.0
25/12:00am 1.7 -4.3 1.0 95 0.3 WSW 22 28 12 15 - - 0.0
 
Date/Time
EDT
Temp
°C
App
Temp
°C
Dew
Point
°C
Rel
Hum
%
Delta-T
°C
Wind Press
QNH
hPa
Press
MSL
hPa
Rain since
9am
mm
Dir  Spd
km/h
Gust
km/h
Spd
kts
Gust
kts
24/11:30pm 1.8 -5.3 1.1 95 0.3 WSW 28 33 15 18 - - 0.0
24/11:00pm 2.0 -4.8 1.0 93 0.4 SW 26 30 14 16 - - 0.0
24/10:30pm 2.5 -4.3 0.6 87 0.8 SW 26 33 14 18 - - 0.0
24/10:00pm 2.3 -5.3 0.5 88 0.7 WSW 30 35 16 19 - - 0.0
24/09:30pm 2.4 -4.0 0.8 89 0.7 WSW 24 33 13 18 - - 0.0
24/09:00pm 2.6 -3.3 1.4 92 0.5 WSW 22 32 12 17 - - 0.0
24/08:30pm 3.0 -5.0 1.8 92 0.5 WSW 33 43 18 23 - - 0.0
24/08:00pm 3.7 -2.7 3.3 97 0.2 WSW 26 37 14 20 - - 0.0
24/07:30pm 3.6 -3.2 3.0 96 0.3 WSW 28 41 15 22 - - 0.0
24/07:00pm 3.8 -4.3 3.4 97 0.2 WSW 35 46 19 25 - - 0.0
24/06:30pm 4.3 -4.4 4.0 98 0.1 WSW 39 48 21 26 - - 0.0
24/06:00pm 4.5 -3.8 4.1 97 0.2 WSW 37 46 20 25 - - 0.0
24/05:30pm 4.7 -3.9 4.4 98 0.1 WSW 39 48 21 26 - - 0.0
24/05:00pm 5.2 -3.0 4.9 98 0.1 WSW 37 48 20 26 - - 0.0
24/04:30pm 5.3 -2.9 4.9 97 0.2 WSW 37 44 20 24 - - 0.0
24/04:00pm 5.6 -0.9 4.9 95 0.3 SW 28 43 15 23 - - 0.0
24/03:30pm 7.4 1.2 4.5 82 1.4 SW 26 37 14 20 - - 0.0
24/03:00pm 8.2 2.3 4.0 75 2.0 WSW 24 39 13 21 - - 0.0
24/02:30pm 8.0 2.4 5.5 84 1.2 WSW 24 32 13 17 - - 0.0
24/02:00pm 8.0 2.9 4.2 77 1.8 WSW 20 33 11 18 - - 0.0
24/01:30pm 8.9 4.0 3.9 71 2.4 WSW 19 32 10 17 - - 0.0
24/01:00pm 8.3 1.9 3.2 70 2.4 WSW 26 35 14 19 - - 0.0
24/12:34pm 8.1 1.3 3.2 71 2.3 WSW 28 54 15 29 - - 0.0
24/12:30pm 7.8 2.2 3.3 73 2.1 WSW 22 43 12 23 - - 0.0
24/12:00pm 6.9 -0.5 4.0 82 1.3 WSW 32 46 17 25 - - 0.0
24/11:54am 6.8 0.3 4.8 87 0.9 WSW 28 46 15 25 - - 0.0
24/11:30am 6.7 -1.3 3.7 81 1.4 WSW 35 46 19 25 - - 0.0
24/11:07am 7.0 -1.8 3.6 79 1.6 W 39 63 21 34 - - 0.0
24/11:00am 7.3 -0.2 3.7 78 1.7 W 32 48 17 26 - - 0.0
24/10:30am 6.9 -2.3 3.3 78 1.6 W 41 54 22 29 - - 0.0
24/10:00am 6.6 -1.1 3.2 79 1.5 W 33 43 18 23 - - 0.0
24/09:30am 4.8 -3.1 2.5 85 1.0 W 33 41 18 22 - - 0.0
24/09:00am 4.7 -1.5 2.4 85 1.0 WNW 24 32 13 17 - - 0.0
24/08:30am 5.5 -3.2 2.3 80 1.4 NW 37 48 20 26 - - 0.0
24/08:00am 5.3 -2.5 2.8 84 1.1 NW 33 43 18 23 - - 0.0
24/07:30am 6.0 -1.6 3.7 85 1.1 NW 33 43 18 23 - - 0.0
24/07:00am 6.7 -0.5 5.2 90 0.7 NNW 32 41 17 22 - - 0.0
24/06:30am 6.7 -1.1 4.9 88 0.9 NW 35 43 19 23 - - 0.0
24/06:00am 6.5 -0.8 4.3 86 1.0 NW 32 39 17 21 - - 0.0
24/05:30am 6.7 1.6 3.3 79 1.5 NNW 19 28 10 15 - - 0.0
24/05:00am 6.8 2.2 3.8 81 1.4 N 17 28 9 15 - - 0.0
24/04:30am 7.3 2.1 3.5 77 1.7 N 20 35 11 19 - - 0.0
24/04:00am 5.9 1.3 3.6 85 1.0 NNW 17 28 9 15 - - 0.0
24/03:30am 6.6 0.7 3.9 83 1.2 NW 24 32 13 17 - - 0.0
24/03:00am 6.5 0.6 4.0 84 1.2 NW 24 30 13 16 - - 0.0
24/02:30am 5.8 -0.8 4.0 88 0.8 WNW 28 33 15 18 - - 0.0
24/02:00am 5.9 -0.3 4.2 89 0.8 WNW 26 33 14 18 - - 0.0
24/01:30am 6.0 -0.5 4.6 91 0.7 WNW 28 33 15 18 - - 0.0
24/01:00am 6.6 1.9 6.2 97 0.2 WNW 20 32 11 17 - - 0.0
24/12:30am 7.9 4.1 7.5 97 0.2 NW 17 24 9 13 - - 0.0
24/12:00am 8.1 3.8 7.7 97 0.2 WNW 20 26 11 14 - - 0.0
 
Date/Time
EDT
Temp
°C
App
Temp
°C
Dew
Point
°C
Rel
Hum
%
Delta-T
°C
Wind Press
QNH
hPa
Press
MSL
hPa
Rain since
9am
mm
Dir  Spd
km/h
Gust
km/h
Spd
kts
Gust
kts
23/11:30pm 8.1 3.8 7.7 97 0.2 NW 20 26 11 14 - - 0.0
23/11:00pm 8.0 3.6 7.4 96 0.3 WNW 20 28 11 15 - - 0.0
23/10:30pm 8.3 4.5 7.4 94 0.5 NW 17 24 9 13 - - 0.0
23/10:00pm 8.6 5.9 7.2 91 0.7 NNW 11 17 6 9 - - 0.0
23/09:30pm 8.9 6.2 7.2 89 0.9 NNW 11 17 6 9 - - 0.0
23/09:00pm 9.5 8.2 7.8 89 0.9 NNE 4 9 2 5 - - 0.0
23/08:30pm 10.2 6.5 6.4 77 1.9 NNW 15 22 8 12 - - 0.0
23/08:00pm 10.7 6.1 6.6 76 2.1 NW 20 32 11 17 - - 0.0
23/07:30pm 11.4 7.5 6.9 74 2.3 WNW 17 22 9 12 - - 0.0
23/07:00pm 11.7 8.4 6.6 71 2.6 WNW 13 19 7 10 - - 0.0
23/06:30pm 13.6 10.3 6.5 62 3.7 W 13 20 7 11 - - 0.0
23/06:00pm 14.3 9.8 5.9 57 4.3 W 19 26 10 14 - - 0.0
23/05:30pm 14.5 11.6 6.6 59 4.1 WNW 11 26 6 14 - - 0.0
23/05:00pm 15.1 10.9 7.4 60 4.1 WNW 19 30 10 16 - - 0.0
23/04:30pm 15.2 10.8 7.5 60 4.1 WNW 20 32 11 17 - - 0.0
23/04:00pm 15.1 11.4 7.9 62 3.8 WNW 17 30 9 16 - - 0.0
23/03:30pm 15.3 10.2 7.6 60 4.1 W 24 37 13 20 - - 0.0
23/03:00pm 14.4 10.0 7.5 63 3.6 WNW 20 32 11 17 - - 0.0

Latest Capital City Observations: Canberra | Sydney | Melbourne | Brisbane | Adelaide | Perth | Hobart | Darwin

Other Formats:

Comma delimited format used in spreadsheet applications
http://www.bom.gov.au/fwo/IDT60901/IDT60901.95979.axf

JavaScript Object Notation format (JSON) in row-major order
http://www.bom.gov.au/fwo/IDT60901/IDT60901.95979.json